createdAt,value
2022-10-26T00:01:23.155Z,6.40
2022-10-26T00:03:51.684Z,6.00
2022-10-26T00:06:22.271Z,5.60
2022-10-26T00:08:51.762Z,6.30
2022-10-26T00:11:20.104Z,5.40
2022-10-26T00:13:48.562Z,6.00
2022-10-26T00:16:23.375Z,5.70
2022-10-26T00:18:51.798Z,5.30
2022-10-26T00:21:20.125Z,6.00
2022-10-26T00:23:48.317Z,5.70
2022-10-26T00:26:18.016Z,5.30
2022-10-26T00:28:46.301Z,5.70
2022-10-26T00:31:16.170Z,5.90
2022-10-26T00:33:44.566Z,5.50
2022-10-26T00:36:17.193Z,5.90
2022-10-26T00:38:53.331Z,5.90
2022-10-26T00:41:26.023Z,5.50
2022-10-26T00:43:54.636Z,5.40
2022-10-26T00:46:24.602Z,5.30
2022-10-26T00:48:56.883Z,5.30
2022-10-26T00:51:25.134Z,5.40
2022-10-26T00:53:55.398Z,5.30
2022-10-26T00:56:24.252Z,5.50
2022-10-26T00:58:52.970Z,5.60
2022-10-26T01:01:21.275Z,5.50
2022-10-26T01:03:49.724Z,5.10
2022-10-26T01:06:18.828Z,5.90
2022-10-26T01:08:48.239Z,5.20
2022-10-26T01:11:16.524Z,4.90
2022-10-26T01:13:45.995Z,5.70
2022-10-26T01:16:26.414Z,6.10
2022-10-26T01:18:59.610Z,5.40
2022-10-26T01:22:03.216Z,5.40
2022-10-26T01:24:59.149Z,4.90
2022-10-26T01:27:30.338Z,5.70
2022-10-26T01:30:17.430Z,5.70
2022-10-26T01:33:10.736Z,5.60
2022-10-26T01:35:54.735Z,5.70
2022-10-26T01:38:41.503Z,5.10
2022-10-26T01:41:33.658Z,5.70
2022-10-26T01:44:07.219Z,4.90
2022-10-26T01:46:39.745Z,5.40
2022-10-26T01:49:12.274Z,5.30
2022-10-26T01:51:42.798Z,4.50
2022-10-26T01:54:11.185Z,5.30
2022-10-26T01:56:42.039Z,5.00
2022-10-26T01:59:37.953Z,5.00
2022-10-26T02:02:24.393Z,4.50
2022-10-26T02:05:10.384Z,5.10
2022-10-26T02:07:51.010Z,5.30
2022-10-26T02:10:41.126Z,5.40
2022-10-26T02:13:31.346Z,5.10
2022-10-26T02:16:31.988Z,5.60
2022-10-26T02:19:11.168Z,5.00
2022-10-26T02:21:45.030Z,5.00
2022-10-26T02:24:15.439Z,5.40
2022-10-26T02:26:47.283Z,5.10
2022-10-26T02:29:20.158Z,5.30
2022-10-26T02:31:50.416Z,5.00
2022-10-26T02:34:22.743Z,5.20
2022-10-26T02:36:53.516Z,4.90
2022-10-26T02:39:22.295Z,5.20
2022-10-26T02:41:52.941Z,5.30
2022-10-26T02:44:30.527Z,5.10
2022-10-26T02:46:59.807Z,5.70
2022-10-26T02:49:29.432Z,5.30
2022-10-26T02:52:27.096Z,5.20
2022-10-26T02:55:07.844Z,5.20
2022-10-26T02:57:43.632Z,4.60
2022-10-26T03:00:15.424Z,4.90
2022-10-26T03:02:48.373Z,4.30
2022-10-26T03:05:21.444Z,5.00
2022-10-26T03:07:49.748Z,4.80
2022-10-26T03:10:18.424Z,4.40
2022-10-26T03:12:47.155Z,4.60
2022-10-26T03:15:15.947Z,5.20
2022-10-26T03:17:44.298Z,5.00
2022-10-26T03:20:13.338Z,5.10
2022-10-26T03:22:41.660Z,5.50
2022-10-26T03:25:10.147Z,4.80
2022-10-26T03:27:38.490Z,5.30
2022-10-26T03:30:07.521Z,5.50
2022-10-26T03:32:35.735Z,4.90
2022-10-26T03:35:04.490Z,5.30
2022-10-26T03:37:32.832Z,5.80
2022-10-26T03:40:01.034Z,5.00
2022-10-26T03:42:33.984Z,5.10
2022-10-26T03:45:02.329Z,4.80
2022-10-26T03:47:30.582Z,5.40
2022-10-26T03:49:59.118Z,5.20
2022-10-26T03:52:27.434Z,5.10
2022-10-26T03:54:55.680Z,6.30
2022-10-26T03:57:23.929Z,5.00
2022-10-26T03:59:52.166Z,4.90
2022-10-26T04:02:20.439Z,5.60
2022-10-26T04:04:48.654Z,5.20
2022-10-26T04:07:16.984Z,4.70
2022-10-26T04:09:45.195Z,5.50
2022-10-26T04:12:13.405Z,5.40
2022-10-26T04:14:41.720Z,5.20
2022-10-26T04:17:09.965Z,5.20
2022-10-26T04:19:38.250Z,5.20
2022-10-26T04:22:06.510Z,4.80
2022-10-26T04:24:34.723Z,5.50
2022-10-26T04:27:02.995Z,5.10
2022-10-26T04:29:31.202Z,5.10
2022-10-26T04:31:59.362Z,4.90
2022-10-26T04:34:27.647Z,5.00
2022-10-26T04:36:56.235Z,5.20
2022-10-26T04:39:24.429Z,5.80
2022-10-26T04:41:54.470Z,5.10
2022-10-26T04:44:22.807Z,5.50
2022-10-26T04:46:50.996Z,5.10
2022-10-26T04:49:19.242Z,5.40
2022-10-26T04:51:47.535Z,5.70
2022-10-26T04:54:15.857Z,5.10
2022-10-26T04:56:44.071Z,5.30
2022-10-26T04:59:12.361Z,5.80
2022-10-26T05:01:40.572Z,5.40
2022-10-26T05:04:08.807Z,5.10
2022-10-26T05:06:37.179Z,5.20
2022-10-26T05:09:05.547Z,5.80
2022-10-26T05:11:33.768Z,5.50
2022-10-26T05:14:02.060Z,5.20
2022-10-26T05:16:30.264Z,5.20
2022-10-26T05:18:58.425Z,4.80
2022-10-26T05:21:26.720Z,5.30
2022-10-26T05:23:55.663Z,5.80
2022-10-26T05:26:24.367Z,4.80
2022-10-26T05:28:53.300Z,4.40
2022-10-26T05:31:21.597Z,5.10
2022-10-26T05:33:52.942Z,5.60
2022-10-26T05:36:21.367Z,4.90
2022-10-26T05:38:49.590Z,5.40
2022-10-26T05:41:18.063Z,5.10
2022-10-26T05:43:48.637Z,5.60
2022-10-26T05:46:17.216Z,5.60
2022-10-26T05:48:45.659Z,5.30
2022-10-26T05:51:14.490Z,5.60
2022-10-26T05:53:42.778Z,6.40
2022-10-26T05:56:21.135Z,5.90
2022-10-26T05:58:49.752Z,5.60
2022-10-26T06:01:39.384Z,5.20
2022-10-26T06:04:07.935Z,5.90
2022-10-26T06:06:45.295Z,6.00
2022-10-26T06:09:16.831Z,6.70
2022-10-26T06:11:45.455Z,6.70
2022-10-26T06:14:14.172Z,6.70
2022-10-26T06:16:58.145Z,7.20
2022-10-26T06:20:05.768Z,7.20
2022-10-26T06:23:04.865Z,7.60
2022-10-26T06:25:59.571Z,7.70
2022-10-26T06:28:57.221Z,8.80
2022-10-26T06:31:25.676Z,6.90
2022-10-26T06:33:59.458Z,7.90
2022-10-26T06:36:29.895Z,8.30
2022-10-26T06:39:05.987Z,8.40
2022-10-26T06:41:36.394Z,8.20
2022-10-26T06:44:06.615Z,8.50
2022-10-26T06:46:48.402Z,9.30
2022-10-26T06:49:16.549Z,9.90
2022-10-26T06:52:12.224Z,9.10
2022-10-26T06:54:52.438Z,8.10
2022-10-26T06:57:23.413Z,8.50
2022-10-26T06:59:53.662Z,7.50
2022-10-26T07:02:22.447Z,6.90
2022-10-26T07:04:50.646Z,7.90
2022-10-26T07:07:21.619Z,7.40
2022-10-26T07:09:50.371Z,7.00
2022-10-26T07:12:18.698Z,6.60
2022-10-26T07:14:47.050Z,6.20
2022-10-26T07:17:15.354Z,7.20
2022-10-26T07:19:44.985Z,6.60
2022-10-26T07:22:13.384Z,6.70
2022-10-26T07:24:41.706Z,6.40
2022-10-26T07:27:09.894Z,5.90
2022-10-26T07:29:38.181Z,6.00
2022-10-26T07:32:06.801Z,6.30
2022-10-26T07:34:35.060Z,6.30
2022-10-26T07:37:03.310Z,5.70
2022-10-26T07:39:32.967Z,5.20
2022-10-26T07:42:01.301Z,5.10
2022-10-26T07:44:29.617Z,5.10
2022-10-26T07:46:58.357Z,4.70
2022-10-26T07:49:27.882Z,4.80
2022-10-26T07:51:56.408Z,4.90
2022-10-26T07:54:24.817Z,5.50
2022-10-26T07:56:53.089Z,5.40
2022-10-26T07:59:21.365Z,4.80
2022-10-26T08:01:49.781Z,4.80
2022-10-26T08:04:18.163Z,5.10
2022-10-26T08:06:47.413Z,5.10
2022-10-26T08:09:15.742Z,4.40
2022-10-26T08:11:44.139Z,5.80
2022-10-26T08:14:12.840Z,4.90
2022-10-26T08:16:41.159Z,4.80
2022-10-26T08:19:09.662Z,4.00
2022-10-26T08:21:40.938Z,4.70
2022-10-26T08:24:09.383Z,4.20
2022-10-26T08:26:37.599Z,4.40
2022-10-26T08:29:05.837Z,4.50
2022-10-26T08:31:34.232Z,4.00
2022-10-26T08:34:04.157Z,3.90
2022-10-26T08:36:32.433Z,3.80
2022-10-26T08:39:00.858Z,3.60
2022-10-26T08:41:37.375Z,3.50
2022-10-26T08:44:18.929Z,4.50
2022-10-26T08:46:51.487Z,4.10
2022-10-26T08:49:27.275Z,4.20
2022-10-26T08:52:00.062Z,3.60
2022-10-26T08:54:45.147Z,4.30
2022-10-26T08:57:26.850Z,4.10
2022-10-26T09:00:03.153Z,3.20
2022-10-26T09:02:32.326Z,3.10
2022-10-26T09:05:00.808Z,3.90
2022-10-26T09:07:31.675Z,3.20
2022-10-26T09:10:36.849Z,4.20
2022-10-26T09:13:17.328Z,3.90
2022-10-26T09:16:06.468Z,4.60
2022-10-26T09:21:27.536Z,3.30
2022-10-26T09:23:59.653Z,3.10
2022-10-26T09:26:40.891Z,3.80
2022-10-26T09:29:14.213Z,4.40
2022-10-26T09:31:47.437Z,4.20
2022-10-26T09:34:28.000Z,3.60
2022-10-26T09:36:57.033Z,3.90
2022-10-26T09:39:52.971Z,3.30
2022-10-26T09:42:38.806Z,2.80
2022-10-26T09:45:25.298Z,3.60
2022-10-26T09:47:56.845Z,3.40
2022-10-26T09:50:36.863Z,3.40
2022-10-26T09:53:05.228Z,2.70
2022-10-26T09:55:39.048Z,2.90
2022-10-26T09:58:14.658Z,4.00
2022-10-26T10:00:44.979Z,3.00
2022-10-26T10:03:30.311Z,2.80
2022-10-26T10:06:17.995Z,3.60
2022-10-26T10:09:05.000Z,2.90
2022-10-26T10:11:58.101Z,3.10
2022-10-26T10:14:40.916Z,2.90
2022-10-26T10:17:21.948Z,2.80
2022-10-26T10:19:51.770Z,2.20
2022-10-26T10:22:25.024Z,2.60
2022-10-26T10:25:01.383Z,3.30
2022-10-26T10:27:32.051Z,4.70
2022-10-26T10:30:22.568Z,3.20
2022-10-26T10:33:11.827Z,2.80
2022-10-26T10:35:50.122Z,2.10
2022-10-26T10:38:21.191Z,2.60
2022-10-26T10:40:55.549Z,3.10
2022-10-26T10:43:24.884Z,2.80
2022-10-26T10:45:59.394Z,3.00
2022-10-26T10:48:29.462Z,2.70
2022-10-26T10:50:57.634Z,2.80
2022-10-26T10:53:44.308Z,2.90
2022-10-26T10:56:43.486Z,3.00
2022-10-26T10:59:45.016Z,3.50
2022-10-26T11:02:32.549Z,3.20
2022-10-26T11:05:10.506Z,3.20
2022-10-26T11:08:19.114Z,2.80
2022-10-26T11:10:53.285Z,2.80
2022-10-26T11:13:30.101Z,3.00
2022-10-26T11:16:12.491Z,3.20
2022-10-26T11:18:50.654Z,3.70
2022-10-26T11:21:30.054Z,2.90
2022-10-26T11:24:11.472Z,2.60
2022-10-26T11:26:46.615Z,3.40
2022-10-26T11:29:24.086Z,2.90
2022-10-26T11:32:01.654Z,2.80
2022-10-26T11:34:51.224Z,2.20
2022-10-26T11:37:57.067Z,3.10
2022-10-26T11:40:33.985Z,2.40
2022-10-26T11:43:23.483Z,2.60
2022-10-26T11:46:22.615Z,2.00
2022-10-26T11:49:21.255Z,2.40
2022-10-26T11:51:52.255Z,2.50
2022-10-26T11:54:28.052Z,2.60
2022-10-26T11:56:58.562Z,2.70
2022-10-26T11:59:33.197Z,2.80
2022-10-26T12:02:27.961Z,3.40
2022-10-26T12:05:17.644Z,2.90
2022-10-26T12:07:53.630Z,3.40
2022-10-26T12:10:29.381Z,3.40
2022-10-26T12:13:06.425Z,2.70
2022-10-26T12:18:54.435Z,3.80
2022-10-26T12:21:27.717Z,3.00
2022-10-26T12:24:25.005Z,3.40
2022-10-26T12:26:56.283Z,2.90
2022-10-26T12:29:38.281Z,3.40
2022-10-26T12:32:28.195Z,3.20
2022-10-26T12:34:58.519Z,3.00
2022-10-26T12:37:37.507Z,3.20
2022-10-26T12:40:30.859Z,3.10
2022-10-26T12:43:25.336Z,3.20
2022-10-26T12:46:14.914Z,2.90
2022-10-26T12:48:45.501Z,3.10
2022-10-26T12:51:34.150Z,3.90
2022-10-26T12:54:32.433Z,3.00
2022-10-26T12:57:51.686Z,3.80
2022-10-26T13:00:25.167Z,3.50
2022-10-26T13:02:59.451Z,3.80
2022-10-26T13:05:39.818Z,3.30
2022-10-26T13:08:13.775Z,3.50
2022-10-26T13:11:05.602Z,3.40
2022-10-26T13:13:36.018Z,3.00
2022-10-26T13:16:04.487Z,3.20
2022-10-26T13:18:43.159Z,3.50
2022-10-26T13:21:13.743Z,2.90
2022-10-26T13:23:48.514Z,2.70
2022-10-26T13:26:20.829Z,3.20
2022-10-26T13:28:50.657Z,2.60
2022-10-26T13:31:54.541Z,3.20
2022-10-26T13:34:25.609Z,2.70
2022-10-26T13:37:03.851Z,2.30
2022-10-26T13:39:44.373Z,2.80
2022-10-26T13:42:17.022Z,3.30
2022-10-26T13:44:54.362Z,2.80
2022-10-26T13:47:31.425Z,27.10
2022-10-26T13:50:05.880Z,12.90
2022-10-26T13:55:20.585Z,3.20
2022-10-26T13:58:05.802Z,2.30
2022-10-26T14:00:34.121Z,3.10
2022-10-26T14:03:13.703Z,2.70
2022-10-26T14:05:46.968Z,2.50
2022-10-26T14:08:19.196Z,2.70
2022-10-26T14:10:53.102Z,2.20
2022-10-26T14:13:26.412Z,2.60
2022-10-26T14:15:58.901Z,2.30
2022-10-26T14:18:31.515Z,2.80
2022-10-26T14:21:13.691Z,2.40
2022-10-26T14:23:52.887Z,12.60
2022-10-26T14:26:39.299Z,192.60
2022-10-26T14:29:37.942Z,80.70
2022-10-26T14:32:27.801Z,45.30
2022-10-26T14:34:56.177Z,26.70
2022-10-26T14:37:49.172Z,11.80
2022-10-26T14:40:20.980Z,6.90
2022-10-26T14:42:54.315Z,6.90
2022-10-26T14:45:48.083Z,7.30
2022-10-26T14:48:34.902Z,8.60
2022-10-26T14:51:10.851Z,12.50
2022-10-26T14:53:41.204Z,9.20
2022-10-26T14:56:28.860Z,6.00
2022-10-26T14:58:59.009Z,4.90
2022-10-26T15:01:31.795Z,5.20
2022-10-26T15:04:07.347Z,3.80
2022-10-26T15:06:42.177Z,3.30
2022-10-26T15:09:31.155Z,3.70
2022-10-26T15:12:00.114Z,3.90
2022-10-26T15:14:28.467Z,4.60
2022-10-26T15:16:58.762Z,3.80
2022-10-26T15:19:28.104Z,4.60
2022-10-26T15:21:56.811Z,4.10
2022-10-26T15:24:37.761Z,4.70
2022-10-26T15:27:17.217Z,4.00
2022-10-26T15:29:48.114Z,4.60
2022-10-26T15:32:32.201Z,5.10
2022-10-26T15:35:23.145Z,3.90
2022-10-26T15:37:53.483Z,3.80
2022-10-26T15:40:22.267Z,4.80
2022-10-26T15:42:55.112Z,5.50
2022-10-26T15:45:48.152Z,8.00
2022-10-26T15:48:31.291Z,12.30
2022-10-26T15:50:59.877Z,10.50
2022-10-26T15:53:28.303Z,7.00
2022-10-26T15:55:59.746Z,6.40
2022-10-26T15:58:31.385Z,9.20
2022-10-26T16:00:59.640Z,19.20
2022-10-26T16:03:28.452Z,18.60
2022-10-26T16:05:59.340Z,20.10
2022-10-26T16:08:30.755Z,18.40
2022-10-26T16:10:59.102Z,14.90
2022-10-26T16:13:27.656Z,12.70
2022-10-26T16:15:55.866Z,14.70
2022-10-26T16:18:24.123Z,23.40
2022-10-26T16:20:52.324Z,26.80
2022-10-26T16:23:20.574Z,27.40
2022-10-26T16:25:48.867Z,20.90
2022-10-26T16:28:17.411Z,22.10
2022-10-26T16:30:45.760Z,25.80
2022-10-26T16:33:14.432Z,30.20
2022-10-26T16:35:42.706Z,32.20
2022-10-26T16:38:10.994Z,33.80
2022-10-26T16:40:42.661Z,32.60
2022-10-26T16:43:11.168Z,28.90
2022-10-26T16:45:41.778Z,27.70
2022-10-26T16:48:15.287Z,26.40
2022-10-26T16:50:43.634Z,21.40
2022-10-26T16:53:11.901Z,20.20
2022-10-26T16:55:40.318Z,18.50
2022-10-26T16:58:08.618Z,17.60
2022-10-26T17:00:37.976Z,17.30
2022-10-26T17:03:06.321Z,17.40
2022-10-26T17:05:34.559Z,15.80
2022-10-26T17:08:02.735Z,17.00
2022-10-26T17:10:30.903Z,21.10
2022-10-26T17:12:59.164Z,24.80
2022-10-26T17:15:29.032Z,26.90
2022-10-26T17:17:57.502Z,22.80
2022-10-26T17:20:25.907Z,18.60
2022-10-26T17:22:55.395Z,18.30
2022-10-26T17:25:23.687Z,17.10
2022-10-26T17:27:51.978Z,20.80
2022-10-26T17:30:20.169Z,33.00
2022-10-26T17:32:48.606Z,41.40
2022-10-26T17:35:17.229Z,59.90
2022-10-26T17:37:45.505Z,90.10
2022-10-26T17:40:13.717Z,98.80
2022-10-26T17:42:42.064Z,164.90
2022-10-26T17:45:10.709Z,149.90
2022-10-26T17:47:38.907Z,88.40
2022-10-26T17:50:07.764Z,70.20
2022-10-26T17:52:36.199Z,62.40
2022-10-26T17:55:04.710Z,58.00
2022-10-26T17:57:34.121Z,50.80
2022-10-26T18:00:02.520Z,48.00
2022-10-26T18:02:40.840Z,43.50
2022-10-26T18:05:09.653Z,49.90
2022-10-26T18:07:37.861Z,54.70
2022-10-26T18:10:14.066Z,45.10
2022-10-26T18:12:54.559Z,40.20
2022-10-26T18:15:23.978Z,35.60
2022-10-26T18:17:55.543Z,30.90
2022-10-26T18:20:28.205Z,25.30
2022-10-26T18:22:57.304Z,25.20
2022-10-26T18:25:26.512Z,28.90
2022-10-26T18:27:55.233Z,33.10
2022-10-26T18:30:25.411Z,26.70
2022-10-26T18:32:53.956Z,26.20
2022-10-26T18:35:24.403Z,30.00
2022-10-26T18:37:53.152Z,23.20
2022-10-26T18:40:21.619Z,19.90
2022-10-26T18:42:49.888Z,19.70
2022-10-26T18:45:18.115Z,19.90
2022-10-26T18:47:46.296Z,19.00
2022-10-26T18:50:14.623Z,19.50
2022-10-26T18:52:42.846Z,20.60
2022-10-26T18:55:11.083Z,20.70
2022-10-26T18:57:40.348Z,20.80
2022-10-26T19:00:09.153Z,20.80
2022-10-26T19:02:37.389Z,18.90
2022-10-26T19:05:06.150Z,22.50
2022-10-26T19:07:34.426Z,21.60
2022-10-26T19:10:02.678Z,20.80
2022-10-26T19:12:30.913Z,20.30
2022-10-26T19:14:59.155Z,21.30
2022-10-26T19:17:27.488Z,22.60
2022-10-26T19:19:55.860Z,21.00
2022-10-26T19:22:24.060Z,16.10
2022-10-26T19:24:52.341Z,17.40
2022-10-26T19:27:20.633Z,17.90
2022-10-26T19:29:48.883Z,16.50
2022-10-26T19:32:17.154Z,16.10
2022-10-26T19:34:45.764Z,15.70
2022-10-26T19:37:14.042Z,17.30
2022-10-26T19:39:43.475Z,18.10
2022-10-26T19:42:11.793Z,17.20
2022-10-26T19:44:39.989Z,19.90
2022-10-26T19:47:08.266Z,19.50
2022-10-26T19:49:36.690Z,17.80
2022-10-26T19:52:05.118Z,19.70
2022-10-26T19:54:33.455Z,19.50
2022-10-26T19:57:01.749Z,20.20
2022-10-26T19:59:30.069Z,21.10
2022-10-26T20:02:00.395Z,22.90
2022-10-26T20:04:28.880Z,23.10
2022-10-26T20:06:57.051Z,20.30
2022-10-26T20:09:25.283Z,18.90
2022-10-26T20:11:53.532Z,18.00
2022-10-26T20:14:21.823Z,18.80
2022-10-26T20:16:50.082Z,17.60
2022-10-26T20:19:18.340Z,17.90
2022-10-26T20:21:46.605Z,20.00
2022-10-26T20:24:14.798Z,19.80
2022-10-26T20:26:43.014Z,20.50
2022-10-26T20:29:11.190Z,19.60
2022-10-26T20:31:39.441Z,21.10
2022-10-26T20:34:08.451Z,18.90
2022-10-26T20:36:36.662Z,19.30
2022-10-26T20:39:05.197Z,18.60
2022-10-26T20:41:33.766Z,21.40
2022-10-26T20:44:02.301Z,21.90
2022-10-26T20:46:30.800Z,20.80
2022-10-26T20:48:59.363Z,21.20
2022-10-26T20:52:02.624Z,21.90
2022-10-26T20:54:35.473Z,19.60
2022-10-26T20:57:07.300Z,22.30
2022-10-26T20:59:47.767Z,21.80
2022-10-26T21:02:16.134Z,22.30
2022-10-26T21:04:44.461Z,21.60
2022-10-26T21:07:12.759Z,22.50
2022-10-26T21:09:40.986Z,21.10
2022-10-26T21:12:09.222Z,20.80
2022-10-26T21:14:40.945Z,21.20
2022-10-26T21:17:10.355Z,21.00
2022-10-26T21:19:38.493Z,21.20
2022-10-26T21:22:06.708Z,19.70
2022-10-26T21:24:38.308Z,19.80
2022-10-26T21:27:07.584Z,18.80
2022-10-26T21:29:35.792Z,18.50
2022-10-26T21:32:04.278Z,19.20
2022-10-26T21:34:32.485Z,18.70
2022-10-26T21:37:00.731Z,19.10
2022-10-26T21:39:28.933Z,18.00
2022-10-26T21:41:57.441Z,19.10
2022-10-26T21:44:40.339Z,19.50
2022-10-26T21:47:10.600Z,17.30
2022-10-26T21:52:12.851Z,17.60
2022-10-26T21:54:41.093Z,17.20
2022-10-26T21:57:09.412Z,17.80
2022-10-26T21:59:37.814Z,17.60
2022-10-26T22:02:06.157Z,17.40
2022-10-26T22:04:34.564Z,17.20
2022-10-26T22:07:02.867Z,17.10
2022-10-26T22:09:32.803Z,17.10
2022-10-26T22:12:04.116Z,17.40
2022-10-26T22:14:32.538Z,16.90
2022-10-26T22:17:00.814Z,16.40
2022-10-26T22:19:29.056Z,17.50
2022-10-26T22:21:57.376Z,16.40
2022-10-26T22:24:25.618Z,17.70
2022-10-26T22:26:53.833Z,17.20
2022-10-26T22:29:23.106Z,15.70
2022-10-26T22:31:51.395Z,16.00
2022-10-26T22:34:19.748Z,17.10
2022-10-26T22:36:48.037Z,16.10
2022-10-26T22:39:17.871Z,17.20
2022-10-26T22:41:48.524Z,15.60
2022-10-26T22:44:16.840Z,15.00
2022-10-26T22:46:45.063Z,14.30
2022-10-26T22:49:13.332Z,16.60
2022-10-26T22:51:41.642Z,15.70
2022-10-26T22:54:12.929Z,16.50
2022-10-26T22:56:41.188Z,15.30
2022-10-26T22:59:09.486Z,14.20
2022-10-26T23:01:41.804Z,16.80
2022-10-26T23:04:12.928Z,16.10
2022-10-26T23:06:41.265Z,15.10
2022-10-26T23:09:09.574Z,15.60
2022-10-26T23:11:37.962Z,16.40
2022-10-26T23:14:06.198Z,16.40
2022-10-26T23:16:34.443Z,15.60
2022-10-26T23:19:02.724Z,16.70
2022-10-26T23:21:30.969Z,15.30
2022-10-26T23:23:59.286Z,16.30
2022-10-26T23:26:27.643Z,15.30
2022-10-26T23:28:56.257Z,14.80
2022-10-26T23:31:26.508Z,13.70
2022-10-26T23:33:56.280Z,12.80
2022-10-26T23:36:24.812Z,14.20
2022-10-26T23:38:53.082Z,14.30
2022-10-26T23:41:21.361Z,14.90
2022-10-26T23:43:49.598Z,14.00
2022-10-26T23:46:17.848Z,15.10
2022-10-26T23:48:46.181Z,14.10
2022-10-26T23:51:14.444Z,14.00
2022-10-26T23:53:42.664Z,14.10
2022-10-26T23:56:10.874Z,14.20
2022-10-26T23:58:39.169Z,13.30
